sensor_id;sensor_type;location;lat;lon;timestamp;pressure;altitude;pressure_sealevel;temperature;humidity
6942;BME280;3510;43.200;27.920;2022-12-18T00:02:19;101683.03;;;18.39;46.16
6942;BME280;3510;43.200;27.920;2022-12-18T00:04:47;101694.97;;;18.52;45.60
6942;BME280;3510;43.200;27.920;2022-12-18T00:07:14;101697.72;;;18.68;45.48
6942;BME280;3510;43.200;27.920;2022-12-18T00:09:41;101703.06;;;18.46;45.79
6942;BME280;3510;43.200;27.920;2022-12-18T00:12:08;101696.94;;;18.31;46.08
6942;BME280;3510;43.200;27.920;2022-12-18T00:14:35;101694.47;;;18.19;46.01
6942;BME280;3510;43.200;27.920;2022-12-18T00:17:03;101694.88;;;18.50;45.12
6942;BME280;3510;43.200;27.920;2022-12-18T00:19:30;101705.81;;;18.49;45.29
6942;BME280;3510;43.200;27.920;2022-12-18T00:21:57;101710.41;;;18.42;45.47
6942;BME280;3510;43.200;27.920;2022-12-18T00:24:24;101715.50;;;18.17;46.11
6942;BME280;3510;43.200;27.920;2022-12-18T00:26:51;101714.97;;;18.59;44.99
6942;BME280;3510;43.200;27.920;2022-12-18T00:29:18;101718.50;;;18.48;44.99
6942;BME280;3510;43.200;27.920;2022-12-18T00:31:45;101729.06;;;18.41;45.47
6942;BME280;3510;43.200;27.920;2022-12-18T00:34:14;101718.28;;;18.20;45.77
6942;BME280;3510;43.200;27.920;2022-12-18T00:36:41;101724.53;;;18.11;45.74
6942;BME280;3510;43.200;27.920;2022-12-18T00:39:10;101742.47;;;18.38;45.21
6942;BME280;3510;43.200;27.920;2022-12-18T00:41:37;101737.69;;;18.18;45.62
6942;BME280;3510;43.200;27.920;2022-12-18T00:44:22;101744.63;;;18.32;45.18
6942;BME280;3510;43.200;27.920;2022-12-18T00:46:49;101727.50;;;18.18;45.67
6942;BME280;3510;43.200;27.920;2022-12-18T00:49:18;101742.75;;;17.93;45.75
6942;BME280;3510;43.200;27.920;2022-12-18T00:51:45;101746.91;;;18.41;44.85
6942;BME280;3510;43.200;27.920;2022-12-18T00:54:12;101738.38;;;18.40;45.14
6942;BME280;3510;43.200;27.920;2022-12-18T00:56:40;101746.19;;;17.93;45.87
6942;BME280;3510;43.200;27.920;2022-12-18T00:59:07;101756.84;;;18.12;45.59
6942;BME280;3510;43.200;27.920;2022-12-18T01:01:34;101761.44;;;18.05;45.71
6942;BME280;3510;43.200;27.920;2022-12-18T01:04:02;101758.78;;;18.03;45.91
6942;BME280;3510;43.200;27.920;2022-12-18T01:06:31;101759.94;;;17.95;46.38
6942;BME280;3510;43.200;27.920;2022-12-18T01:08:57;101757.59;;;18.23;45.56
6942;BME280;3510;43.200;27.920;2022-12-18T01:11:25;101749.06;;;18.23;45.44
6942;BME280;3510;43.200;27.920;2022-12-18T01:13:52;101757.53;;;18.35;45.24
6942;BME280;3510;43.200;27.920;2022-12-18T01:16:20;101759.72;;;18.42;45.20
6942;BME280;3510;43.200;27.920;2022-12-18T01:18:47;101765.56;;;18.28;45.47
6942;BME280;3510;43.200;27.920;2022-12-18T01:21:17;101773.59;;;18.21;45.55
6942;BME280;3510;43.200;27.920;2022-12-18T01:23:45;101775.78;;;18.78;44.13
6942;BME280;3510;43.200;27.920;2022-12-18T01:26:14;101779.50;;;18.33;44.84
6942;BME280;3510;43.200;27.920;2022-12-18T01:28:42;101760.56;;;18.29;44.88
6942;BME280;3510;43.200;27.920;2022-12-18T01:31:14;101767.84;;;18.11;45.15
6942;BME280;3510;43.200;27.920;2022-12-18T01:33:42;101784.63;;;17.73;45.73
6942;BME280;3510;43.200;27.920;2022-12-18T01:36:15;101790.47;;;17.83;45.44
6942;BME280;3510;43.200;27.920;2022-12-18T01:38:43;101773.03;;;18.38;44.53
6942;BME280;3510;43.200;27.920;2022-12-18T01:41:12;101776.31;;;18.49;44.40
6942;BME280;3510;43.200;27.920;2022-12-18T01:43:44;101786.66;;;17.77;45.58
6942;BME280;3510;43.200;27.920;2022-12-18T01:46:11;101800.22;;;18.37;44.56
6942;BME280;3510;43.200;27.920;2022-12-18T01:48:39;101787.34;;;18.61;43.87
6942;BME280;3510;43.200;27.920;2022-12-18T01:51:08;101789.88;;;18.48;44.44
6942;BME280;3510;43.200;27.920;2022-12-18T01:53:37;101787.84;;;18.55;44.44
6942;BME280;3510;43.200;27.920;2022-12-18T01:56:04;101808.25;;;18.69;44.48
6942;BME280;3510;43.200;27.920;2022-12-18T01:58:38;101799.69;;;18.55;44.32
6942;BME280;3510;43.200;27.920;2022-12-18T02:01:06;101819.03;;;18.03;45.41
6942;BME280;3510;43.200;27.920;2022-12-18T02:03:33;101805.97;;;17.98;45.58
6942;BME280;3510;43.200;27.920;2022-12-18T02:06:06;101803.94;;;18.18;45.22
6942;BME280;3510;43.200;27.920;2022-12-18T02:08:41;101795.78;;;18.35;45.00
6942;BME280;3510;43.200;27.920;2022-12-18T02:11:14;101782.97;;;17.61;46.33
6942;BME280;3510;43.200;27.920;2022-12-18T02:13:55;101770.31;;;17.75;46.03
6942;BME280;3510;43.200;27.920;2022-12-18T02:16:30;101811.50;;;17.57;46.66
6942;BME280;3510;43.200;27.920;2022-12-18T02:19:08;101793.38;;;17.53;46.58
6942;BME280;3510;43.200;27.920;2022-12-18T02:21:49;101803.28;;;18.08;45.54
6942;BME280;3510;43.200;27.920;2022-12-18T02:24:29;101800.53;;;18.05;45.54
6942;BME280;3510;43.200;27.920;2022-12-18T02:27:04;101794.03;;;17.74;45.94
6942;BME280;3510;43.200;27.920;2022-12-18T02:29:35;101804.47;;;17.77;46.29
6942;BME280;3510;43.200;27.920;2022-12-18T02:32:07;101819.47;;;17.97;45.87
6942;BME280;3510;43.200;27.920;2022-12-18T02:34:38;101830.03;;;17.78;46.46
6942;BME280;3510;43.200;27.920;2022-12-18T02:37:09;101834.00;;;17.51;46.40
6942;BME280;3510;43.200;27.920;2022-12-18T02:39:39;101841.63;;;17.51;46.34
6942;BME280;3510;43.200;27.920;2022-12-18T02:42:08;101834.41;;;17.57;46.24
6942;BME280;3510;43.200;27.920;2022-12-18T02:44:42;101832.09;;;17.49;46.61
6942;BME280;3510;43.200;27.920;2022-12-18T02:47:10;101852.25;;;17.57;46.58
6942;BME280;3510;43.200;27.920;2022-12-18T02:49:44;101843.25;;;17.27;47.05
6942;BME280;3510;43.200;27.920;2022-12-18T02:52:23;101864.88;;;17.44;47.04
6942;BME280;3510;43.200;27.920;2022-12-18T02:55:00;101870.34;;;17.27;47.31
6942;BME280;3510;43.200;27.920;2022-12-18T02:57:37;101869.13;;;17.10;47.44
6942;BME280;3510;43.200;27.920;2022-12-18T03:00:08;101851.66;;;17.26;47.06
6942;BME280;3510;43.200;27.920;2022-12-18T03:02:41;101859.34;;;17.04;47.63
6942;BME280;3510;43.200;27.920;2022-12-18T03:05:15;101842.38;;;16.81;48.11
6942;BME280;3510;43.200;27.920;2022-12-18T03:07:49;101867.22;;;16.74;48.50
6942;BME280;3510;43.200;27.920;2022-12-18T03:10:23;101859.41;;;16.82;48.45
6942;BME280;3510;43.200;27.920;2022-12-18T03:12:56;101855.91;;;16.70;48.63
6942;BME280;3510;43.200;27.920;2022-12-18T03:15:29;101856.56;;;16.89;48.25
6942;BME280;3510;43.200;27.920;2022-12-18T03:18:01;101855.91;;;16.92;48.38
6942;BME280;3510;43.200;27.920;2022-12-18T03:20:31;101849.53;;;16.75;48.46
6942;BME280;3510;43.200;27.920;2022-12-18T03:23:04;101845.22;;;16.74;48.47
6942;BME280;3510;43.200;27.920;2022-12-18T03:25:33;101847.78;;;16.64;48.33
6942;BME280;3510;43.200;27.920;2022-12-18T03:28:05;101847.41;;;16.48;48.46
6942;BME280;3510;43.200;27.920;2022-12-18T03:30:37;101860.75;;;16.89;47.84
6942;BME280;3510;43.200;27.920;2022-12-18T03:33:09;101855.84;;;17.02;47.32
6942;BME280;3510;43.200;27.920;2022-12-18T03:35:39;101856.72;;;16.59;48.06
6942;BME280;3510;43.200;27.920;2022-12-18T03:38:08;101856.53;;;16.67;47.90
6942;BME280;3510;43.200;27.920;2022-12-18T03:40:43;101866.78;;;17.13;47.14
6942;BME280;3510;43.200;27.920;2022-12-18T03:43:17;101881.94;;;17.11;47.12
6942;BME280;3510;43.200;27.920;2022-12-18T03:45:50;101880.69;;;17.40;46.81
6942;BME280;3510;43.200;27.920;2022-12-18T03:48:26;101886.97;;;16.88;47.39
6942;BME280;3510;43.200;27.920;2022-12-18T03:50:58;101890.63;;;17.37;46.59
6942;BME280;3510;43.200;27.920;2022-12-18T03:53:34;101887.81;;;17.10;46.89
6942;BME280;3510;43.200;27.920;2022-12-18T03:56:04;101914.50;;;17.39;45.79
6942;BME280;3510;43.200;27.920;2022-12-18T03:58:34;101920.41;;;17.95;44.80
6942;BME280;3510;43.200;27.920;2022-12-18T04:01:09;101929.63;;;17.71;45.47
6942;BME280;3510;43.200;27.920;2022-12-18T04:03:39;101919.06;;;17.77;45.35
6942;BME280;3510;43.200;27.920;2022-12-18T04:06:07;101949.81;;;18.27;44.55
6942;BME280;3510;43.200;27.920;2022-12-18T04:08:35;101965.00;;;17.90;44.70
6942;BME280;3510;43.200;27.920;2022-12-18T04:11:02;101970.22;;;17.80;44.98
6942;BME280;3510;43.200;27.920;2022-12-18T04:13:34;101980.25;;;18.60;43.21
6942;BME280;3510;43.200;27.920;2022-12-18T04:16:02;101984.53;;;18.25;43.98
6942;BME280;3510;43.200;27.920;2022-12-18T04:18:29;101989.13;;;17.83;44.08
6942;BME280;3510;43.200;27.920;2022-12-18T04:20:56;102011.78;;;18.26;43.10
6942;BME280;3510;43.200;27.920;2022-12-18T04:23:23;102006.63;;;18.61;42.18
6942;BME280;3510;43.200;27.920;2022-12-18T04:25:50;102017.72;;;17.57;43.71
6942;BME280;3510;43.200;27.920;2022-12-18T04:28:17;102021.22;;;17.14;43.92
6942;BME280;3510;43.200;27.920;2022-12-18T04:30:45;102015.09;;;15.95;45.47
6942;BME280;3510;43.200;27.920;2022-12-18T04:33:13;102033.25;;;16.62;44.05
6942;BME280;3510;43.200;27.920;2022-12-18T04:35:40;102044.94;;;15.77;45.92
6942;BME280;3510;43.200;27.920;2022-12-18T04:38:08;102028.78;;;16.07;45.10
6942;BME280;3510;43.200;27.920;2022-12-18T04:40:36;102077.78;;;16.27;44.34
6942;BME280;3510;43.200;27.920;2022-12-18T04:43:03;102031.28;;;16.38;44.24
6942;BME280;3510;43.200;27.920;2022-12-18T04:45:31;102057.47;;;16.27;44.03
6942;BME280;3510;43.200;27.920;2022-12-18T04:48:00;102064.19;;;15.65;45.55
6942;BME280;3510;43.200;27.920;2022-12-18T04:50:27;102070.44;;;15.89;44.90
6942;BME280;3510;43.200;27.920;2022-12-18T04:52:55;102083.25;;;15.70;44.80
6942;BME280;3510;43.200;27.920;2022-12-18T04:55:21;102078.44;;;15.73;44.71
6942;BME280;3510;43.200;27.920;2022-12-18T04:57:48;102078.84;;;15.38;44.88
6942;BME280;3510;43.200;27.920;2022-12-18T05:00:16;102054.41;;;16.31;43.10
6942;BME280;3510;43.200;27.920;2022-12-18T05:02:43;102085.88;;;15.61;44.10
6942;BME280;3510;43.200;27.920;2022-12-18T05:05:11;102084.09;;;16.42;42.13
6942;BME280;3510;43.200;27.920;2022-12-18T05:07:38;102123.66;;;16.28;42.44
6942;BME280;3510;43.200;27.920;2022-12-18T05:10:05;102112.34;;;16.04;42.99
6942;BME280;3510;43.200;27.920;2022-12-18T05:12:33;102125.78;;;15.93;42.71
6942;BME280;3510;43.200;27.920;2022-12-18T05:15:19;102105.84;;;15.67;43.44
6942;BME280;3510;43.200;27.920;2022-12-18T05:17:46;102117.16;;;16.01;43.25
6942;BME280;3510;43.200;27.920;2022-12-18T05:20:15;102111.06;;;16.19;43.05
6942;BME280;3510;43.200;27.920;2022-12-18T05:22:43;102130.94;;;14.95;45.70
6942;BME280;3510;43.200;27.920;2022-12-18T05:25:10;102133.16;;;16.00;44.14
6942;BME280;3510;43.200;27.920;2022-12-18T05:27:37;102142.69;;;15.53;43.94
6942;BME280;3510;43.200;27.920;2022-12-18T05:30:05;102158.91;;;15.45;43.98
6942;BME280;3510;43.200;27.920;2022-12-18T05:32:32;102122.84;;;14.99;44.85
6942;BME280;3510;43.200;27.920;2022-12-18T05:34:59;102169.47;;;15.60;43.53
6942;BME280;3510;43.200;27.920;2022-12-18T05:37:27;102168.53;;;15.39;44.16
6942;BME280;3510;43.200;27.920;2022-12-18T05:39:54;102154.94;;;15.38;43.70
6942;BME280;3510;43.200;27.920;2022-12-18T05:42:21;102168.06;;;15.43;43.83
6942;BME280;3510;43.200;27.920;2022-12-18T05:44:48;102185.00;;;15.34;43.89
6942;BME280;3510;43.200;27.920;2022-12-18T05:47:15;102200.34;;;14.68;44.86
6942;BME280;3510;43.200;27.920;2022-12-18T05:49:42;102197.50;;;15.51;43.48
6942;BME280;3510;43.200;27.920;2022-12-18T05:52:09;102205.09;;;16.50;41.04
6942;BME280;3510;43.200;27.920;2022-12-18T05:54:38;102203.03;;;16.66;40.69
6942;BME280;3510;43.200;27.920;2022-12-18T05:57:05;102205.47;;;15.45;42.34
6942;BME280;3510;43.200;27.920;2022-12-18T05:59:32;102202.41;;;15.39;42.73
6942;BME280;3510;43.200;27.920;2022-12-18T06:01:59;102220.22;;;14.27;44.29
6942;BME280;3510;43.200;27.920;2022-12-18T06:04:26;102233.03;;;14.57;44.31
6942;BME280;3510;43.200;27.920;2022-12-18T06:06:54;102251.91;;;14.50;44.14
6942;BME280;3510;43.200;27.920;2022-12-18T06:09:21;102241.59;;;14.95;43.69
6942;BME280;3510;43.200;27.920;2022-12-18T06:11:51;102243.16;;;14.65;43.43
6942;BME280;3510;43.200;27.920;2022-12-18T06:14:18;102273.31;;;14.45;43.91
6942;BME280;3510;43.200;27.920;2022-12-18T06:16:45;102266.66;;;14.00;44.47
6942;BME280;3510;43.200;27.920;2022-12-18T06:19:15;102282.41;;;14.15;44.66
6942;BME280;3510;43.200;27.920;2022-12-18T06:21:42;102315.78;;;14.47;44.27
6942;BME280;3510;43.200;27.920;2022-12-18T06:24:09;102319.25;;;14.75;43.72
6942;BME280;3510;43.200;27.920;2022-12-18T06:26:37;102285.88;;;15.17;42.24
6942;BME280;3510;43.200;27.920;2022-12-18T06:29:06;102310.81;;;15.32;42.52
6942;BME280;3510;43.200;27.920;2022-12-18T06:31:33;102339.41;;;15.39;41.80
6942;BME280;3510;43.200;27.920;2022-12-18T06:34:02;102308.13;;;15.30;41.95
6942;BME280;3510;43.200;27.920;2022-12-18T06:36:29;102357.34;;;15.13;42.66
6942;BME280;3510;43.200;27.920;2022-12-18T06:38:56;102342.66;;;13.48;45.55
6942;BME280;3510;43.200;27.920;2022-12-18T06:41:24;102358.88;;;13.76;46.12
6942;BME280;3510;43.200;27.920;2022-12-18T06:43:51;102365.94;;;14.24;44.99
6942;BME280;3510;43.200;27.920;2022-12-18T06:46:20;102374.31;;;14.06;45.13
6942;BME280;3510;43.200;27.920;2022-12-18T06:48:48;102367.91;;;14.00;46.10
6942;BME280;3510;43.200;27.920;2022-12-18T06:51:17;102386.72;;;13.76;46.12
6942;BME280;3510;43.200;27.920;2022-12-18T06:53:44;102381.63;;;14.02;45.65
6942;BME280;3510;43.200;27.920;2022-12-18T06:56:11;102385.34;;;14.06;46.07
6942;BME280;3510;43.200;27.920;2022-12-18T06:58:39;102385.81;;;13.50;47.17
6942;BME280;3510;43.200;27.920;2022-12-18T07:01:07;102393.56;;;13.77;46.26
6942;BME280;3510;43.200;27.920;2022-12-18T07:03:36;102381.63;;;13.42;46.96
6942;BME280;3510;43.200;27.920;2022-12-18T07:06:03;102394.84;;;13.30;47.34
6942;BME280;3510;43.200;27.920;2022-12-18T07:08:31;102403.47;;;12.49;49.32
6942;BME280;3510;43.200;27.920;2022-12-18T07:11:02;102405.00;;;12.97;47.98
6942;BME280;3510;43.200;27.920;2022-12-18T07:13:29;102402.78;;;13.42;47.11
6942;BME280;3510;43.200;27.920;2022-12-18T07:16:04;102408.56;;;13.67;46.66
6942;BME280;3510;43.200;27.920;2022-12-18T07:18:36;102397.81;;;13.26;46.85
6942;BME280;3510;43.200;27.920;2022-12-18T07:21:03;102391.59;;;12.90;47.86
6942;BME280;3510;43.200;27.920;2022-12-18T07:23:32;102430.78;;;13.61;46.83
6942;BME280;3510;43.200;27.920;2022-12-18T07:26:01;102421.75;;;14.34;45.46
6942;BME280;3510;43.200;27.920;2022-12-18T07:28:28;102434.03;;;13.77;46.39
6942;BME280;3510;43.200;27.920;2022-12-18T07:30:56;102408.84;;;14.14;45.61
6942;BME280;3510;43.200;27.920;2022-12-18T07:33:24;102431.56;;;14.57;45.00
6942;BME280;3510;43.200;27.920;2022-12-18T07:35:52;102429.88;;;13.69;45.82
6942;BME280;3510;43.200;27.920;2022-12-18T07:38:19;102459.56;;;13.28;46.95
6942;BME280;3510;43.200;27.920;2022-12-18T07:40:46;102441.78;;;13.96;45.88
6942;BME280;3510;43.200;27.920;2022-12-18T07:43:13;102436.69;;;13.44;47.09
6942;BME280;3510;43.200;27.920;2022-12-18T07:45:41;102449.03;;;13.08;47.79
6942;BME280;3510;43.200;27.920;2022-12-18T07:48:08;102432.81;;;13.39;47.30
6942;BME280;3510;43.200;27.920;2022-12-18T07:50:36;102448.00;;;13.39;47.31
6942;BME280;3510;43.200;27.920;2022-12-18T07:53:04;102428.38;;;13.54;46.97
6942;BME280;3510;43.200;27.920;2022-12-18T07:55:32;102437.91;;;13.83;45.62
6942;BME280;3510;43.200;27.920;2022-12-18T07:58:01;102451.63;;;13.17;47.51
6942;BME280;3510;43.200;27.920;2022-12-18T08:00:28;102423.16;;;13.96;45.53
6942;BME280;3510;43.200;27.920;2022-12-18T08:02:55;102438.16;;;14.38;44.76
6942;BME280;3510;43.200;27.920;2022-12-18T08:05:22;102459.03;;;13.74;46.50
6942;BME280;3510;43.200;27.920;2022-12-18T08:07:49;102456.16;;;13.45;47.33
6942;BME280;3510;43.200;27.920;2022-12-18T08:10:18;102449.03;;;13.41;47.10
6942;BME280;3510;43.200;27.920;2022-12-18T08:12:45;102465.28;;;13.19;47.75
6942;BME280;3510;43.200;27.920;2022-12-18T08:15:12;102436.81;;;13.46;47.12
6942;BME280;3510;43.200;27.920;2022-12-18T08:17:39;102446.63;;;13.01;47.75
6942;BME280;3510;43.200;27.920;2022-12-18T08:20:06;102465.06;;;13.24;47.85
6942;BME280;3510;43.200;27.920;2022-12-18T08:22:34;102444.47;;;13.13;47.62
6942;BME280;3510;43.200;27.920;2022-12-18T08:25:02;102453.31;;;13.00;48.55
6942;BME280;3510;43.200;27.920;2022-12-18T08:27:30;102461.22;;;13.37;47.70
6942;BME280;3510;43.200;27.920;2022-12-18T08:29:57;102462.59;;;13.94;46.25
6942;BME280;3510;43.200;27.920;2022-12-18T08:32:25;102461.44;;;14.08;45.98
6942;BME280;3510;43.200;27.920;2022-12-18T08:34:52;102464.72;;;13.98;45.80
6942;BME280;3510;43.200;27.920;2022-12-18T08:37:19;102464.84;;;13.65;46.80
6942;BME280;3510;43.200;27.920;2022-12-18T08:39:46;102430.31;;;13.83;46.07
6942;BME280;3510;43.200;27.920;2022-12-18T08:42:13;102429.88;;;13.95;45.74
6942;BME280;3510;43.200;27.920;2022-12-18T08:44:59;102466.72;;;13.41;47.06
6942;BME280;3510;43.200;27.920;2022-12-18T08:47:26;102452.16;;;13.56;46.92
6942;BME280;3510;43.200;27.920;2022-12-18T08:49:53;102458.13;;;13.48;47.04
6942;BME280;3510;43.200;27.920;2022-12-18T08:52:20;102444.59;;;13.56;46.94
6942;BME280;3510;43.200;27.920;2022-12-18T08:54:47;102449.81;;;14.18;45.42
6942;BME280;3510;43.200;27.920;2022-12-18T08:57:14;102459.66;;;13.80;46.35
6942;BME280;3510;43.200;27.920;2022-12-18T08:59:41;102463.22;;;14.00;45.73
6942;BME280;3510;43.200;27.920;2022-12-18T09:02:10;102461.25;;;14.49;45.01
6942;BME280;3510;43.200;27.920;2022-12-18T09:04:38;102460.69;;;13.83;45.99
6942;BME280;3510;43.200;27.920;2022-12-18T09:07:05;102470.59;;;13.38;47.31
6942;BME280;3510;43.200;27.920;2022-12-18T09:09:32;102462.88;;;13.03;48.25
6942;BME280;3510;43.200;27.920;2022-12-18T09:11:59;102454.56;;;14.15;45.62
6942;BME280;3510;43.200;27.920;2022-12-18T09:14:26;102466.28;;;13.37;47.37
6942;BME280;3510;43.200;27.920;2022-12-18T09:16:53;102456.38;;;13.82;46.28
6942;BME280;3510;43.200;27.920;2022-12-18T09:19:22;102457.53;;;13.68;46.60
6942;BME280;3510;43.200;27.920;2022-12-18T09:21:52;102459.81;;;13.99;46.70
6942;BME280;3510;43.200;27.920;2022-12-18T09:24:19;102467.84;;;13.95;46.11
6942;BME280;3510;43.200;27.920;2022-12-18T09:26:45;102462.34;;;13.91;46.11
6942;BME280;3510;43.200;27.920;2022-12-18T09:29:12;102433.28;;;13.61;47.02
6942;BME280;3510;43.200;27.920;2022-12-18T09:31:40;102456.66;;;14.11;45.75
6942;BME280;3510;43.200;27.920;2022-12-18T09:34:07;102461.16;;;14.13;46.02
6942;BME280;3510;43.200;27.920;2022-12-18T09:36:35;102462.59;;;14.28;45.95
6942;BME280;3510;43.200;27.920;2022-12-18T09:39:03;102448.94;;;14.09;46.08
6942;BME280;3510;43.200;27.920;2022-12-18T09:41:41;102462.94;;;14.06;46.41
6942;BME280;3510;43.200;27.920;2022-12-18T09:44:24;102452.03;;;13.72;46.68
6942;BME280;3510;43.200;27.920;2022-12-18T09:47:00;102460.53;;;13.90;46.61
6942;BME280;3510;43.200;27.920;2022-12-18T09:49:31;102463.81;;;13.97;46.98
6942;BME280;3510;43.200;27.920;2022-12-18T09:52:04;102464.69;;;13.72;46.72
6942;BME280;3510;43.200;27.920;2022-12-18T09:54:35;102459.66;;;14.07;46.36
6942;BME280;3510;43.200;27.920;2022-12-18T09:57:04;102453.09;;;14.00;46.46
6942;BME280;3510;43.200;27.920;2022-12-18T09:59:35;102446.69;;;13.69;47.13
6942;BME280;3510;43.200;27.920;2022-12-18T10:02:14;102456.47;;;13.57;47.34
6942;BME280;3510;43.200;27.920;2022-12-18T10:04:42;102440.59;;;13.58;47.37
6942;BME280;3510;43.200;27.920;2022-12-18T10:07:15;102451.00;;;14.13;46.40
6942;BME280;3510;43.200;27.920;2022-12-18T10:09:51;102448.00;;;14.09;45.44
6942;BME280;3510;43.200;27.920;2022-12-18T10:12:24;102424.56;;;14.46;45.48
6942;BME280;3510;43.200;27.920;2022-12-18T10:14:58;102443.97;;;14.37;45.89
6942;BME280;3510;43.200;27.920;2022-12-18T10:17:36;102441.94;;;14.77;45.05
6942;BME280;3510;43.200;27.920;2022-12-18T10:20:13;102429.78;;;14.56;44.77
6942;BME280;3510;43.200;27.920;2022-12-18T10:22:54;102447.44;;;13.94;46.13
6942;BME280;3510;43.200;27.920;2022-12-18T10:25:25;102435.56;;;14.72;45.36
6942;BME280;3510;43.200;27.920;2022-12-18T10:27:56;102448.84;;;14.70;44.65
6942;BME280;3510;43.200;27.920;2022-12-18T10:30:25;102450.78;;;15.28;43.36
6942;BME280;3510;43.200;27.920;2022-12-18T10:32:52;102451.59;;;15.18;43.81
6942;BME280;3510;43.200;27.920;2022-12-18T10:35:22;102456.53;;;15.44;42.86
6942;BME280;3510;43.200;27.920;2022-12-18T10:38:06;102458.69;;;15.31;43.77
6942;BME280;3510;43.200;27.920;2022-12-18T10:40:48;102463.59;;;15.10;43.60
6942;BME280;3510;43.200;27.920;2022-12-18T10:43:20;102461.03;;;15.38;43.17
6942;BME280;3510;43.200;27.920;2022-12-18T10:46:12;102469.19;;;14.89;43.88
6942;BME280;3510;43.200;27.920;2022-12-18T10:48:51;102488.28;;;15.21;43.39
6942;BME280;3510;43.200;27.920;2022-12-18T10:51:25;102481.00;;;15.43;43.40
6942;BME280;3510;43.200;27.920;2022-12-18T10:53:59;102478.09;;;15.30;43.17
6942;BME280;3510;43.200;27.920;2022-12-18T10:56:29;102482.56;;;15.33;43.44
6942;BME280;3510;43.200;27.920;2022-12-18T10:58:59;102493.50;;;15.97;42.08
6942;BME280;3510;43.200;27.920;2022-12-18T11:01:27;102483.63;;;16.00;41.65
6942;BME280;3510;43.200;27.920;2022-12-18T11:04:07;102469.25;;;15.63;42.63
6942;BME280;3510;43.200;27.920;2022-12-18T11:06:52;102494.38;;;15.79;41.96
6942;BME280;3510;43.200;27.920;2022-12-18T11:09:22;102492.81;;;16.08;41.80
6942;BME280;3510;43.200;27.920;2022-12-18T11:11:49;102498.06;;;15.91;42.30
6942;BME280;3510;43.200;27.920;2022-12-18T11:14:22;102498.97;;;16.02;41.80
6942;BME280;3510;43.200;27.920;2022-12-18T11:16:50;102502.97;;;15.70;42.54
6942;BME280;3510;43.200;27.920;2022-12-18T11:19:30;102492.88;;;15.53;42.94
6942;BME280;3510;43.200;27.920;2022-12-18T11:21:58;102505.41;;;15.33;43.70
6942;BME280;3510;43.200;27.920;2022-12-18T11:24:30;102505.97;;;16.23;42.03
6942;BME280;3510;43.200;27.920;2022-12-18T11:26:58;102505.50;;;15.43;43.64
6942;BME280;3510;43.200;27.920;2022-12-18T11:29:32;102494.94;;;15.02;44.40
6942;BME280;3510;43.200;27.920;2022-12-18T11:32:33;102509.78;;;15.99;42.62
6942;BME280;3510;43.200;27.920;2022-12-18T11:35:08;102514.94;;;14.99;44.54
6942;BME280;3510;43.200;27.920;2022-12-18T11:37:40;102510.59;;;14.98;44.70
6942;BME280;3510;43.200;27.920;2022-12-18T11:40:14;102528.00;;;14.41;46.14
6942;BME280;3510;43.200;27.920;2022-12-18T11:42:46;102526.34;;;14.76;45.45
6942;BME280;3510;43.200;27.920;2022-12-18T11:45:26;102505.94;;;14.66;45.40
6942;BME280;3510;43.200;27.920;2022-12-18T11:47:57;102514.13;;;14.38;46.32
6942;BME280;3510;43.200;27.920;2022-12-18T11:50:30;102509.69;;;15.06;45.03
6942;BME280;3510;43.200;27.920;2022-12-18T11:52:58;102502.22;;;15.90;43.48
6942;BME280;3510;43.200;27.920;2022-12-18T11:55:33;102528.75;;;14.66;45.14
6942;BME280;3510;43.200;27.920;2022-12-18T11:58:10;102510.44;;;14.17;47.10
6942;BME280;3510;43.200;27.920;2022-12-18T12:00:46;102491.50;;;14.65;45.87
6942;BME280;3510;43.200;27.920;2022-12-18T12:03:36;102484.03;;;14.23;47.03
6942;BME280;3510;43.200;27.920;2022-12-18T12:06:10;102522.03;;;14.49;46.62
6942;BME280;3510;43.200;27.920;2022-12-18T12:08:54;102518.22;;;15.34;44.54
6942;BME280;3510;43.200;27.920;2022-12-18T12:11:30;102530.28;;;15.37;43.74
6942;BME280;3510;43.200;27.920;2022-12-18T12:14:24;102551.69;;;14.76;45.19
6942;BME280;3510;43.200;27.920;2022-12-18T12:16:58;102539.41;;;14.98;44.64
6942;BME280;3510;43.200;27.920;2022-12-18T12:19:34;102556.31;;;15.53;43.44
6942;BME280;3510;43.200;27.920;2022-12-18T12:22:08;102568.13;;;16.27;42.28
6942;BME280;3510;43.200;27.920;2022-12-18T12:24:51;102569.75;;;15.88;42.58
6942;BME280;3510;43.200;27.920;2022-12-18T12:27:29;102575.63;;;16.06;42.38
6942;BME280;3510;43.200;27.920;2022-12-18T12:30:05;102575.53;;;15.32;43.94
6942;BME280;3510;43.200;27.920;2022-12-18T12:32:48;102573.38;;;15.45;43.94
6942;BME280;3510;43.200;27.920;2022-12-18T12:35:28;102573.38;;;15.45;43.76
6942;BME280;3510;43.200;27.920;2022-12-18T12:38:05;102562.22;;;15.43;43.70
6942;BME280;3510;43.200;27.920;2022-12-18T12:40:36;102564.59;;;15.97;42.51
6942;BME280;3510;43.200;27.920;2022-12-18T12:43:22;102592.59;;;15.52;42.94
6942;BME280;3510;43.200;27.920;2022-12-18T12:45:53;102579.44;;;15.56;43.49
6942;BME280;3510;43.200;27.920;2022-12-18T12:48:32;102577.81;;;15.65;43.57
6942;BME280;3510;43.200;27.920;2022-12-18T12:51:00;102593.47;;;15.25;44.10
6942;BME280;3510;43.200;27.920;2022-12-18T12:53:33;102608.81;;;15.99;42.58
6942;BME280;3510;43.200;27.920;2022-12-18T12:56:03;102611.75;;;16.50;41.19
6942;BME280;3510;43.200;27.920;2022-12-18T12:58:38;102620.41;;;15.51;41.53
6942;BME280;3510;43.200;27.920;2022-12-18T13:01:12;102613.25;;;15.38;40.16
6942;BME280;3510;43.200;27.920;2022-12-18T13:03:46;102615.16;;;15.49;39.99
6942;BME280;3510;43.200;27.920;2022-12-18T13:06:19;102622.31;;;14.99;40.52
6942;BME280;3510;43.200;27.920;2022-12-18T13:08:55;102613.56;;;15.41;40.16
6942;BME280;3510;43.200;27.920;2022-12-18T13:11:30;102611.78;;;14.69;41.13
6942;BME280;3510;43.200;27.920;2022-12-18T13:14:26;102610.88;;;15.76;39.53
6942;BME280;3510;43.200;27.920;2022-12-18T13:17:28;102618.31;;;14.93;40.59
6942;BME280;3510;43.200;27.920;2022-12-18T13:20:10;102618.88;;;14.38;39.08